sensor_id;sensor_type;location;lat;lon;timestamp;P1;durP1;ratioP1;P2;durP2;ratioP2
7929;SDS011;4010;42.698;23.124;2023-04-15T00:00:07;4.87;;;1.60;;
7929;SDS011;4010;42.698;23.124;2023-04-15T00:02:34;2.20;;;1.63;;
7929;SDS011;4010;42.698;23.124;2023-04-15T00:05:01;2.37;;;1.53;;
7929;SDS011;4010;42.698;23.124;2023-04-15T00:07:29;2.53;;;1.20;;
7929;SDS011;4010;42.698;23.124;2023-04-15T00:09:55;3.97;;;1.90;;
7929;SDS011;4010;42.698;23.124;2023-04-15T00:12:22;2.23;;;1.40;;
7929;SDS011;4010;42.698;23.124;2023-04-15T00:14:49;3.40;;;2.40;;
7929;SDS011;4010;42.698;23.124;2023-04-15T00:17:16;2.80;;;1.77;;
7929;SDS011;4010;42.698;23.124;2023-04-15T00:19:43;2.63;;;1.77;;
7929;SDS011;4010;42.698;23.124;2023-04-15T00:22:09;3.87;;;1.70;;
7929;SDS011;4010;42.698;23.124;2023-04-15T00:24:38;2.13;;;1.80;;
7929;SDS011;4010;42.698;23.124;2023-04-15T00:27:05;6.13;;;2.20;;
7929;SDS011;4010;42.698;23.124;2023-04-15T00:29:32;7.37;;;2.80;;
7929;SDS011;4010;42.698;23.124;2023-04-15T00:31:59;7.13;;;3.93;;
7929;SDS011;4010;42.698;23.124;2023-04-15T00:34:26;2.67;;;2.03;;
7929;SDS011;4010;42.698;23.124;2023-04-15T00:36:54;4.43;;;1.50;;
7929;SDS011;4010;42.698;23.124;2023-04-15T00:39:21;3.13;;;1.27;;
7929;SDS011;4010;42.698;23.124;2023-04-15T00:41:49;7.97;;;1.50;;
7929;SDS011;4010;42.698;23.124;2023-04-15T00:44:15;1.60;;;1.30;;
7929;SDS011;4010;42.698;23.124;2023-04-15T00:46:43;3.33;;;0.97;;
7929;SDS011;4010;42.698;23.124;2023-04-15T00:49:11;2.60;;;1.10;;
7929;SDS011;4010;42.698;23.124;2023-04-15T00:51:38;4.33;;;0.90;;
7929;SDS011;4010;42.698;23.124;2023-04-15T00:54:05;2.37;;;1.20;;
7929;SDS011;4010;42.698;23.124;2023-04-15T00:56:33;2.73;;;1.43;;
7929;SDS011;4010;42.698;23.124;2023-04-15T00:59:03;3.73;;;1.30;;
7929;SDS011;4010;42.698;23.124;2023-04-15T01:01:32;2.03;;;1.20;;
7929;SDS011;4010;42.698;23.124;2023-04-15T01:04:00;1.97;;;1.50;;
7929;SDS011;4010;42.698;23.124;2023-04-15T01:06:27;1.33;;;1.20;;
7929;SDS011;4010;42.698;23.124;2023-04-15T01:08:54;1.90;;;1.40;;
7929;SDS011;4010;42.698;23.124;2023-04-15T01:11:22;2.07;;;1.23;;
7929;SDS011;4010;42.698;23.124;2023-04-15T01:13:49;1.17;;;1.07;;
7929;SDS011;4010;42.698;23.124;2023-04-15T01:16:18;3.50;;;1.10;;
7929;SDS011;4010;42.698;23.124;2023-04-15T01:18:45;2.13;;;1.23;;
7929;SDS011;4010;42.698;23.124;2023-04-15T01:21:12;2.57;;;1.30;;
7929;SDS011;4010;42.698;23.124;2023-04-15T01:23:38;3.10;;;1.17;;
7929;SDS011;4010;42.698;23.124;2023-04-15T01:26:07;2.10;;;1.30;;
7929;SDS011;4010;42.698;23.124;2023-04-15T01:28:34;1.53;;;1.23;;
7929;SDS011;4010;42.698;23.124;2023-04-15T01:31:05;4.47;;;2.30;;
7929;SDS011;4010;42.698;23.124;2023-04-15T01:33:32;1.80;;;1.57;;
7929;SDS011;4010;42.698;23.124;2023-04-15T01:35:59;1.73;;;1.50;;
7929;SDS011;4010;42.698;23.124;2023-04-15T01:38:26;1.70;;;1.23;;
7929;SDS011;4010;42.698;23.124;2023-04-15T01:40:54;2.37;;;1.20;;
7929;SDS011;4010;42.698;23.124;2023-04-15T01:43:22;3.53;;;1.73;;
7929;SDS011;4010;42.698;23.124;2023-04-15T01:45:49;1.27;;;1.17;;
7929;SDS011;4010;42.698;23.124;2023-04-15T01:48:16;1.67;;;1.20;;
7929;SDS011;4010;42.698;23.124;2023-04-15T01:50:43;1.10;;;1.00;;
7929;SDS011;4010;42.698;23.124;2023-04-15T01:53:09;4.00;;;1.50;;
7929;SDS011;4010;42.698;23.124;2023-04-15T01:55:36;2.63;;;1.10;;
7929;SDS011;4010;42.698;23.124;2023-04-15T01:58:03;1.70;;;1.23;;
7929;SDS011;4010;42.698;23.124;2023-04-15T02:00:31;6.40;;;2.40;;
7929;SDS011;4010;42.698;23.124;2023-04-15T02:02:58;6.77;;;3.87;;
7929;SDS011;4010;42.698;23.124;2023-04-15T02:05:24;3.53;;;3.17;;
7929;SDS011;4010;42.698;23.124;2023-04-15T02:07:51;3.07;;;2.20;;
7929;SDS011;4010;42.698;23.124;2023-04-15T02:10:19;4.07;;;1.40;;
7929;SDS011;4010;42.698;23.124;2023-04-15T02:12:46;3.27;;;1.53;;
7929;SDS011;4010;42.698;23.124;2023-04-15T02:15:13;1.20;;;1.10;;
7929;SDS011;4010;42.698;23.124;2023-04-15T02:17:41;1.77;;;1.20;;
7929;SDS011;4010;42.698;23.124;2023-04-15T02:20:10;5.27;;;2.40;;
7929;SDS011;4010;42.698;23.124;2023-04-15T02:22:37;4.83;;;2.80;;
7929;SDS011;4010;42.698;23.124;2023-04-15T02:25:04;3.80;;;3.07;;
7929;SDS011;4010;42.698;23.124;2023-04-15T02:27:31;10.60;;;3.57;;
7929;SDS011;4010;42.698;23.124;2023-04-15T02:29:58;6.97;;;3.20;;
7929;SDS011;4010;42.698;23.124;2023-04-15T02:32:25;3.87;;;1.97;;
7929;SDS011;4010;42.698;23.124;2023-04-15T02:34:54;4.57;;;1.50;;
7929;SDS011;4010;42.698;23.124;2023-04-15T02:37:21;1.90;;;1.70;;
7929;SDS011;4010;42.698;23.124;2023-04-15T02:39:48;2.13;;;1.50;;
7929;SDS011;4010;42.698;23.124;2023-04-15T02:42:15;2.13;;;1.63;;
7929;SDS011;4010;42.698;23.124;2023-04-15T02:44:42;3.30;;;1.93;;
7929;SDS011;4010;42.698;23.124;2023-04-15T02:47:08;1.63;;;1.20;;
7929;SDS011;4010;42.698;23.124;2023-04-15T02:49:35;10.00;;;2.03;;
7929;SDS011;4010;42.698;23.124;2023-04-15T02:52:03;2.87;;;1.50;;
7929;SDS011;4010;42.698;23.124;2023-04-15T02:54:31;3.73;;;1.40;;
7929;SDS011;4010;42.698;23.124;2023-04-15T02:56:58;1.60;;;1.30;;
7929;SDS011;4010;42.698;23.124;2023-04-15T02:59:25;2.10;;;1.60;;
7929;SDS011;4010;42.698;23.124;2023-04-15T03:01:52;1.97;;;1.60;;
7929;SDS011;4010;42.698;23.124;2023-04-15T03:04:20;2.33;;;1.60;;
7929;SDS011;4010;42.698;23.124;2023-04-15T03:06:47;2.20;;;1.40;;
7929;SDS011;4010;42.698;23.124;2023-04-15T03:09:15;1.80;;;1.70;;
7929;SDS011;4010;42.698;23.124;2023-04-15T03:11:41;3.07;;;1.80;;
7929;SDS011;4010;42.698;23.124;2023-04-15T03:14:08;1.63;;;1.37;;
7929;SDS011;4010;42.698;23.124;2023-04-15T03:16:35;4.27;;;2.37;;
7929;SDS011;4010;42.698;23.124;2023-04-15T03:19:01;1.53;;;1.43;;
7929;SDS011;4010;42.698;23.124;2023-04-15T03:21:28;2.23;;;1.53;;
7929;SDS011;4010;42.698;23.124;2023-04-15T03:23:55;5.90;;;1.63;;
7929;SDS011;4010;42.698;23.124;2023-04-15T03:26:24;2.47;;;1.50;;
7929;SDS011;4010;42.698;23.124;2023-04-15T03:28:52;2.13;;;1.60;;
7929;SDS011;4010;42.698;23.124;2023-04-15T03:31:19;1.90;;;1.63;;
7929;SDS011;4010;42.698;23.124;2023-04-15T03:33:45;2.30;;;1.80;;
7929;SDS011;4010;42.698;23.124;2023-04-15T03:36:12;2.23;;;1.97;;
7929;SDS011;4010;42.698;23.124;2023-04-15T03:38:39;2.00;;;1.80;;
7929;SDS011;4010;42.698;23.124;2023-04-15T03:41:05;4.30;;;2.00;;
7929;SDS011;4010;42.698;23.124;2023-04-15T03:43:34;3.50;;;1.50;;
7929;SDS011;4010;42.698;23.124;2023-04-15T03:46:00;4.33;;;1.97;;
7929;SDS011;4010;42.698;23.124;2023-04-15T03:48:27;2.33;;;1.83;;
7929;SDS011;4010;42.698;23.124;2023-04-15T03:50:54;1.87;;;1.50;;
7929;SDS011;4010;42.698;23.124;2023-04-15T03:53:20;2.77;;;1.97;;
7929;SDS011;4010;42.698;23.124;2023-04-15T03:55:47;6.43;;;2.03;;
7929;SDS011;4010;42.698;23.124;2023-04-15T03:58:14;3.00;;;2.07;;
7929;SDS011;4010;42.698;23.124;2023-04-15T04:00:42;3.27;;;1.90;;
7929;SDS011;4010;42.698;23.124;2023-04-15T04:03:09;2.83;;;2.00;;
7929;SDS011;4010;42.698;23.124;2023-04-15T04:05:35;9.13;;;2.30;;
7929;SDS011;4010;42.698;23.124;2023-04-15T04:08:03;3.13;;;1.83;;
7929;SDS011;4010;42.698;23.124;2023-04-15T04:10:30;5.00;;;2.13;;
7929;SDS011;4010;42.698;23.124;2023-04-15T04:12:57;5.93;;;2.27;;
7929;SDS011;4010;42.698;23.124;2023-04-15T04:15:23;3.63;;;2.10;;
7929;SDS011;4010;42.698;23.124;2023-04-15T04:17:51;2.53;;;2.10;;
7929;SDS011;4010;42.698;23.124;2023-04-15T04:20:18;4.13;;;2.47;;
7929;SDS011;4010;42.698;23.124;2023-04-15T04:22:45;4.70;;;2.80;;
7929;SDS011;4010;42.698;23.124;2023-04-15T04:25:11;5.00;;;2.40;;
7929;SDS011;4010;42.698;23.124;2023-04-15T04:27:38;4.77;;;3.10;;
7929;SDS011;4010;42.698;23.124;2023-04-15T04:30:05;4.77;;;2.90;;
7929;SDS011;4010;42.698;23.124;2023-04-15T04:32:33;12.47;;;5.40;;
7929;SDS011;4010;42.698;23.124;2023-04-15T04:35:01;9.57;;;5.53;;
7929;SDS011;4010;42.698;23.124;2023-04-15T04:37:28;15.53;;;7.37;;
7929;SDS011;4010;42.698;23.124;2023-04-15T04:39:54;7.47;;;3.40;;
7929;SDS011;4010;42.698;23.124;2023-04-15T04:42:21;4.57;;;2.03;;
7929;SDS011;4010;42.698;23.124;2023-04-15T04:44:48;3.43;;;1.97;;
7929;SDS011;4010;42.698;23.124;2023-04-15T04:47:14;4.83;;;2.03;;
7929;SDS011;4010;42.698;23.124;2023-04-15T04:49:41;3.77;;;1.60;;
7929;SDS011;4010;42.698;23.124;2023-04-15T04:52:09;4.10;;;1.50;;
7929;SDS011;4010;42.698;23.124;2023-04-15T04:54:36;4.47;;;1.77;;
7929;SDS011;4010;42.698;23.124;2023-04-15T04:57:03;7.40;;;3.00;;
7929;SDS011;4010;42.698;23.124;2023-04-15T04:59:29;7.03;;;4.03;;
7929;SDS011;4010;42.698;23.124;2023-04-15T05:01:56;8.30;;;3.97;;
7929;SDS011;4010;42.698;23.124;2023-04-15T05:04:23;7.17;;;3.90;;
7929;SDS011;4010;42.698;23.124;2023-04-15T05:06:50;3.40;;;2.40;;
7929;SDS011;4010;42.698;23.124;2023-04-15T05:09:18;3.30;;;2.07;;
7929;SDS011;4010;42.698;23.124;2023-04-15T05:11:44;4.60;;;2.10;;
7929;SDS011;4010;42.698;23.124;2023-04-15T05:14:11;3.53;;;1.83;;
7929;SDS011;4010;42.698;23.124;2023-04-15T05:16:38;2.67;;;1.97;;
7929;SDS011;4010;42.698;23.124;2023-04-15T05:19:04;3.70;;;1.57;;
7929;SDS011;4010;42.698;23.124;2023-04-15T05:21:31;5.77;;;2.00;;
7929;SDS011;4010;42.698;23.124;2023-04-15T05:23:58;2.33;;;1.40;;
7929;SDS011;4010;42.698;23.124;2023-04-15T05:26:26;3.27;;;1.10;;
7929;SDS011;4010;42.698;23.124;2023-04-15T05:28:53;1.87;;;1.30;;
7929;SDS011;4010;42.698;23.124;2023-04-15T05:31:20;2.43;;;1.30;;
7929;SDS011;4010;42.698;23.124;2023-04-15T05:33:46;2.77;;;1.43;;
7929;SDS011;4010;42.698;23.124;2023-04-15T05:36:13;2.13;;;1.23;;
7929;SDS011;4010;42.698;23.124;2023-04-15T05:38:40;1.20;;;1.10;;
7929;SDS011;4010;42.698;23.124;2023-04-15T05:41:06;3.77;;;1.43;;
7929;SDS011;4010;42.698;23.124;2023-04-15T05:43:35;2.90;;;1.47;;
7929;SDS011;4010;42.698;23.124;2023-04-15T05:46:02;2.83;;;1.23;;
7929;SDS011;4010;42.698;23.124;2023-04-15T05:48:28;2.57;;;1.10;;
7929;SDS011;4010;42.698;23.124;2023-04-15T05:50:55;3.20;;;2.00;;
7929;SDS011;4010;42.698;23.124;2023-04-15T05:53:22;2.90;;;1.30;;
7929;SDS011;4010;42.698;23.124;2023-04-15T05:55:48;5.23;;;1.17;;
7929;SDS011;4010;42.698;23.124;2023-04-15T05:58:15;1.30;;;1.20;;
7929;SDS011;4010;42.698;23.124;2023-04-15T06:00:43;2.47;;;1.40;;
7929;SDS011;4010;42.698;23.124;2023-04-15T06:03:10;1.53;;;1.20;;
7929;SDS011;4010;42.698;23.124;2023-04-15T06:05:37;1.70;;;1.33;;
7929;SDS011;4010;42.698;23.124;2023-04-15T06:08:04;2.50;;;1.53;;
7929;SDS011;4010;42.698;23.124;2023-04-15T06:10:33;2.50;;;1.30;;
7929;SDS011;4010;42.698;23.124;2023-04-15T06:13:00;2.67;;;1.70;;
7929;SDS011;4010;42.698;23.124;2023-04-15T06:15:27;5.33;;;2.20;;
7929;SDS011;4010;42.698;23.124;2023-04-15T06:17:56;3.27;;;1.70;;
7929;SDS011;4010;42.698;23.124;2023-04-15T06:20:23;2.47;;;1.57;;
7929;SDS011;4010;42.698;23.124;2023-04-15T06:22:50;1.77;;;1.60;;
7929;SDS011;4010;42.698;23.124;2023-04-15T06:25:17;5.47;;;2.20;;
7929;SDS011;4010;42.698;23.124;2023-04-15T06:27:43;10.63;;;2.83;;
7929;SDS011;4010;42.698;23.124;2023-04-15T06:30:10;7.53;;;2.93;;
7929;SDS011;4010;42.698;23.124;2023-04-15T06:32:38;5.70;;;2.90;;
7929;SDS011;4010;42.698;23.124;2023-04-15T06:35:06;5.93;;;2.33;;
7929;SDS011;4010;42.698;23.124;2023-04-15T06:37:33;5.17;;;2.13;;
7929;SDS011;4010;42.698;23.124;2023-04-15T06:40:00;4.43;;;2.50;;
7929;SDS011;4010;42.698;23.124;2023-04-15T06:42:29;3.00;;;1.90;;
7929;SDS011;4010;42.698;23.124;2023-04-15T06:44:55;8.77;;;3.70;;
7929;SDS011;4010;42.698;23.124;2023-04-15T06:47:22;4.07;;;1.97;;
7929;SDS011;4010;42.698;23.124;2023-04-15T06:49:49;5.47;;;1.83;;
7929;SDS011;4010;42.698;23.124;2023-04-15T06:52:17;4.37;;;1.63;;
7929;SDS011;4010;42.698;23.124;2023-04-15T06:54:44;2.00;;;1.27;;
7929;SDS011;4010;42.698;23.124;2023-04-15T06:57:11;3.20;;;1.67;;
7929;SDS011;4010;42.698;23.124;2023-04-15T06:59:37;2.00;;;1.40;;
7929;SDS011;4010;42.698;23.124;2023-04-15T07:02:04;2.83;;;1.47;;
7929;SDS011;4010;42.698;23.124;2023-04-15T07:04:33;3.83;;;1.37;;
7929;SDS011;4010;42.698;23.124;2023-04-15T07:07:00;3.43;;;1.70;;
7929;SDS011;4010;42.698;23.124;2023-04-15T07:09:28;2.10;;;1.43;;
7929;SDS011;4010;42.698;23.124;2023-04-15T07:11:54;1.63;;;1.20;;
7929;SDS011;4010;42.698;23.124;2023-04-15T07:14:21;2.27;;;1.13;;
7929;SDS011;4010;42.698;23.124;2023-04-15T07:16:48;2.63;;;1.10;;
7929;SDS011;4010;42.698;23.124;2023-04-15T07:19:15;3.13;;;1.20;;
7929;SDS011;4010;42.698;23.124;2023-04-15T07:21:41;1.80;;;1.10;;
7929;SDS011;4010;42.698;23.124;2023-04-15T07:24:08;2.80;;;1.70;;
7929;SDS011;4010;42.698;23.124;2023-04-15T07:26:36;1.53;;;1.30;;
7929;SDS011;4010;42.698;23.124;2023-04-15T07:29:03;3.53;;;1.40;;
7929;SDS011;4010;42.698;23.124;2023-04-15T07:31:30;1.73;;;1.00;;
7929;SDS011;4010;42.698;23.124;2023-04-15T07:33:57;1.70;;;0.73;;
7929;SDS011;4010;42.698;23.124;2023-04-15T07:36:23;1.63;;;1.00;;
7929;SDS011;4010;42.698;23.124;2023-04-15T07:38:50;1.37;;;1.00;;
7929;SDS011;4010;42.698;23.124;2023-04-15T07:41:17;2.30;;;1.00;;
7929;SDS011;4010;42.698;23.124;2023-04-15T07:43:45;0.70;;;0.70;;
7929;SDS011;4010;42.698;23.124;2023-04-15T07:46:12;2.03;;;1.20;;
7929;SDS011;4010;42.698;23.124;2023-04-15T07:48:39;2.40;;;1.10;;
7929;SDS011;4010;42.698;23.124;2023-04-15T07:51:06;0.97;;;0.80;;
7929;SDS011;4010;42.698;23.124;2023-04-15T07:53:34;1.20;;;0.80;;
7929;SDS011;4010;42.698;23.124;2023-04-15T07:56:02;2.07;;;1.33;;
7929;SDS011;4010;42.698;23.124;2023-04-15T07:58:29;2.10;;;1.00;;
7929;SDS011;4010;42.698;23.124;2023-04-15T08:00:57;2.50;;;0.90;;
7929;SDS011;4010;42.698;23.124;2023-04-15T08:03:24;1.33;;;0.80;;
7929;SDS011;4010;42.698;23.124;2023-04-15T08:05:51;1.50;;;1.00;;
7929;SDS011;4010;42.698;23.124;2023-04-15T08:08:18;2.23;;;0.90;;
7929;SDS011;4010;42.698;23.124;2023-04-15T08:10:45;1.70;;;1.30;;
7929;SDS011;4010;42.698;23.124;2023-04-15T08:13:11;2.47;;;1.40;;
7929;SDS011;4010;42.698;23.124;2023-04-15T08:15:38;2.90;;;1.40;;
7929;SDS011;4010;42.698;23.124;2023-04-15T08:18:06;1.03;;;0.93;;
7929;SDS011;4010;42.698;23.124;2023-04-15T08:20:33;2.03;;;1.07;;
7929;SDS011;4010;42.698;23.124;2023-04-15T08:23:00;2.90;;;1.00;;
7929;SDS011;4010;42.698;23.124;2023-04-15T08:25:27;2.10;;;0.77;;
7929;SDS011;4010;42.698;23.124;2023-04-15T08:27:54;1.37;;;0.83;;
7929;SDS011;4010;42.698;23.124;2023-04-15T08:30:21;1.13;;;0.90;;
7929;SDS011;4010;42.698;23.124;2023-04-15T08:32:49;2.40;;;1.53;;
7929;SDS011;4010;42.698;23.124;2023-04-15T08:35:17;3.03;;;2.33;;
7929;SDS011;4010;42.698;23.124;2023-04-15T08:37:44;3.50;;;1.20;;
7929;SDS011;4010;42.698;23.124;2023-04-15T08:40:11;1.30;;;1.00;;
7929;SDS011;4010;42.698;23.124;2023-04-15T08:42:40;1.17;;;0.90;;
7929;SDS011;4010;42.698;23.124;2023-04-15T08:45:09;1.90;;;1.00;;
7929;SDS011;4010;42.698;23.124;2023-04-15T08:47:36;1.73;;;0.90;;
7929;SDS011;4010;42.698;23.124;2023-04-15T08:50:04;2.30;;;0.83;;
7929;SDS011;4010;42.698;23.124;2023-04-15T08:52:37;6.43;;;1.00;;
7929;SDS011;4010;42.698;23.124;2023-04-15T08:55:05;3.00;;;0.83;;
7929;SDS011;4010;42.698;23.124;2023-04-15T08:57:34;1.40;;;0.93;;
7929;SDS011;4010;42.698;23.124;2023-04-15T09:00:04;1.40;;;1.00;;
7929;SDS011;4010;42.698;23.124;2023-04-15T09:02:33;1.43;;;0.87;;
7929;SDS011;4010;42.698;23.124;2023-04-15T09:05:00;1.33;;;0.77;;
7929;SDS011;4010;42.698;23.124;2023-04-15T09:07:29;2.40;;;0.87;;
7929;SDS011;4010;42.698;23.124;2023-04-15T09:09:57;1.20;;;1.00;;
7929;SDS011;4010;42.698;23.124;2023-04-15T09:12:23;1.13;;;0.90;;
7929;SDS011;4010;42.698;23.124;2023-04-15T09:14:50;2.30;;;0.90;;
7929;SDS011;4010;42.698;23.124;2023-04-15T09:17:18;1.37;;;1.03;;
7929;SDS011;4010;42.698;23.124;2023-04-15T09:19:45;1.77;;;0.80;;
7929;SDS011;4010;42.698;23.124;2023-04-15T09:22:12;3.40;;;0.93;;
7929;SDS011;4010;42.698;23.124;2023-04-15T09:24:39;1.27;;;0.77;;
7929;SDS011;4010;42.698;23.124;2023-04-15T09:27:09;0.97;;;0.80;;
7929;SDS011;4010;42.698;23.124;2023-04-15T09:29:36;1.80;;;0.90;;
7929;SDS011;4010;42.698;23.124;2023-04-15T09:32:09;1.30;;;0.60;;
7929;SDS011;4010;42.698;23.124;2023-04-15T09:34:37;1.27;;;0.90;;
7929;SDS011;4010;42.698;23.124;2023-04-15T09:37:04;2.87;;;0.90;;
7929;SDS011;4010;42.698;23.124;2023-04-15T09:39:47;2.23;;;0.87;;
7929;SDS011;4010;42.698;23.124;2023-04-15T09:42:22;2.57;;;0.50;;
7929;SDS011;4010;42.698;23.124;2023-04-15T09:44:49;2.57;;;0.63;;
7929;SDS011;4010;42.698;23.124;2023-04-15T09:47:26;2.67;;;0.70;;
7929;SDS011;4010;42.698;23.124;2023-04-15T09:49:54;3.00;;;2.13;;
7929;SDS011;4010;42.698;23.124;2023-04-15T09:52:21;6.43;;;0.73;;
7929;SDS011;4010;42.698;23.124;2023-04-15T09:54:48;0.60;;;0.60;;
7929;SDS011;4010;42.698;23.124;2023-04-15T09:57:19;3.93;;;1.40;;
7929;SDS011;4010;42.698;23.124;2023-04-15T09:59:47;1.17;;;0.77;;
7929;SDS011;4010;42.698;23.124;2023-04-15T10:02:14;2.23;;;1.50;;
7929;SDS011;4010;42.698;23.124;2023-04-15T10:04:43;2.37;;;1.23;;
7929;SDS011;4010;42.698;23.124;2023-04-15T10:07:12;1.47;;;0.70;;
7929;SDS011;4010;42.698;23.124;2023-04-15T10:09:44;1.40;;;0.93;;
7929;SDS011;4010;42.698;23.124;2023-04-15T10:12:11;0.80;;;0.70;;
7929;SDS011;4010;42.698;23.124;2023-04-15T10:14:39;1.00;;;0.77;;
7929;SDS011;4010;42.698;23.124;2023-04-15T10:17:11;4.43;;;1.60;;
7929;SDS011;4010;42.698;23.124;2023-04-15T10:19:38;3.50;;;2.60;;
7929;SDS011;4010;42.698;23.124;2023-04-15T10:22:06;7.13;;;4.17;;
7929;SDS011;4010;42.698;23.124;2023-04-15T10:24:33;2.43;;;1.30;;
7929;SDS011;4010;42.698;23.124;2023-04-15T10:27:01;2.83;;;1.83;;
7929;SDS011;4010;42.698;23.124;2023-04-15T10:29:31;3.43;;;1.57;;
7929;SDS011;4010;42.698;23.124;2023-04-15T10:31:57;1.07;;;0.97;;
7929;SDS011;4010;42.698;23.124;2023-04-15T10:34:27;3.03;;;1.50;;
7929;SDS011;4010;42.698;23.124;2023-04-15T10:36:56;3.63;;;1.97;;
7929;SDS011;4010;42.698;23.124;2023-04-15T10:39:37;2.87;;;1.53;;
7929;SDS011;4010;42.698;23.124;2023-04-15T10:42:05;0.80;;;0.70;;
7929;SDS011;4010;42.698;23.124;2023-04-15T10:44:32;4.70;;;2.00;;
7929;SDS011;4010;42.698;23.124;2023-04-15T10:47:03;1.10;;;0.90;;
7929;SDS011;4010;42.698;23.124;2023-04-15T10:49:36;1.00;;;0.77;;
7929;SDS011;4010;42.698;23.124;2023-04-15T10:52:09;1.10;;;0.73;;
7929;SDS011;4010;42.698;23.124;2023-04-15T10:54:35;1.77;;;1.50;;
7929;SDS011;4010;42.698;23.124;2023-04-15T10:57:07;4.57;;;1.97;;
7929;SDS011;4010;42.698;23.124;2023-04-15T10:59:35;1.60;;;0.70;;
7929;SDS011;4010;42.698;23.124;2023-04-15T11:02:03;0.93;;;0.70;;
7929;SDS011;4010;42.698;23.124;2023-04-15T11:07:34;2.10;;;1.00;;
7929;SDS011;4010;42.698;23.124;2023-04-15T11:10:01;11.17;;;4.80;;
7929;SDS011;4010;42.698;23.124;2023-04-15T11:12:35;5.70;;;3.73;;
7929;SDS011;4010;42.698;23.124;2023-04-15T11:17:52;3.57;;;2.23;;
7929;SDS011;4010;42.698;23.124;2023-04-15T11:20:20;5.10;;;2.40;;
7929;SDS011;4010;42.698;23.124;2023-04-15T11:22:47;4.37;;;2.30;;
7929;SDS011;4010;42.698;23.124;2023-04-15T11:25:21;4.47;;;1.53;;
7929;SDS011;4010;42.698;23.124;2023-04-15T11:27:48;2.50;;;1.67;;
7929;SDS011;4010;42.698;23.124;2023-04-15T11:30:17;1.67;;;1.27;;
7929;SDS011;4010;42.698;23.124;2023-04-15T11:32:46;3.50;;;1.70;;
7929;SDS011;4010;42.698;23.124;2023-04-15T11:35:12;1.53;;;0.60;;
7929;SDS011;4010;42.698;23.124;2023-04-15T11:37:40;0.70;;;0.70;;
7929;SDS011;4010;42.698;23.124;2023-04-15T11:40:08;1.10;;;0.90;;
7929;SDS011;4010;42.698;23.124;2023-04-15T11:42:35;4.53;;;2.60;;
7929;SDS011;4010;42.698;23.124;2023-04-15T11:45:05;1.47;;;1.20;;
7929;SDS011;4010;42.698;23.124;2023-04-15T11:47:33;1.47;;;0.70;;
7929;SDS011;4010;42.698;23.124;2023-04-15T11:50:12;0.90;;;0.70;;
7929;SDS011;4010;42.698;23.124;2023-04-15T11:52:42;1.30;;;0.97;;
7929;SDS011;4010;42.698;23.124;2023-04-15T11:55:18;1.20;;;0.80;;
7929;SDS011;4010;42.698;23.124;2023-04-15T11:57:44;2.50;;;1.20;;
7929;SDS011;4010;42.698;23.124;2023-04-15T12:00:12;1.47;;;0.80;;
7929;SDS011;4010;42.698;23.124;2023-04-15T12:02:39;1.60;;;0.60;;
7929;SDS011;4010;42.698;23.124;2023-04-15T12:05:07;7.17;;;0.87;;
7929;SDS011;4010;42.698;23.124;2023-04-15T12:10:24;1.10;;;0.90;;
7929;SDS011;4010;42.698;23.124;2023-04-15T12:12:51;3.60;;;0.60;;
7929;SDS011;4010;42.698;23.124;2023-04-15T12:15:20;0.63;;;0.60;;
7929;SDS011;4010;42.698;23.124;2023-04-15T12:17:47;2.00;;;1.13;;
7929;SDS011;4010;42.698;23.124;2023-04-15T12:20:19;1.03;;;0.70;;
7929;SDS011;4010;42.698;23.124;2023-04-15T12:22:47;3.93;;;1.17;;
7929;SDS011;4010;42.698;23.124;2023-04-15T12:25:15;1.70;;;0.60;;
7929;SDS011;4010;42.698;23.124;2023-04-15T12:27:49;2.57;;;1.40;;
7929;SDS011;4010;42.698;23.124;2023-04-15T12:30:17;2.00;;;1.70;;
7929;SDS011;4010;42.698;23.124;2023-04-15T12:32:44;2.20;;;1.77;;
7929;SDS011;4010;42.698;23.124;2023-04-15T12:35:11;2.47;;;1.53;;
7929;SDS011;4010;42.698;23.124;2023-04-15T12:37:38;0.63;;;0.63;;
7929;SDS011;4010;42.698;23.124;2023-04-15T12:40:06;2.00;;;0.60;;
7929;SDS011;4010;42.698;23.124;2023-04-15T12:42:35;0.90;;;0.70;;
7929;SDS011;4010;42.698;23.124;2023-04-15T12:45:02;1.13;;;0.60;;
7929;SDS011;4010;42.698;23.124;2023-04-15T12:47:29;0.83;;;0.60;;
7929;SDS011;4010;42.698;23.124;2023-04-15T12:49:55;0.77;;;0.60;;
7929;SDS011;4010;42.698;23.124;2023-04-15T12:52:22;2.77;;;0.70;;
7929;SDS011;4010;42.698;23.124;2023-04-15T12:54:49;0.60;;;0.60;;
7929;SDS011;4010;42.698;23.124;2023-04-15T12:57:16;0.83;;;0.50;;
7929;SDS011;4010;42.698;23.124;2023-04-15T12:59:44;0.60;;;0.60;;
7929;SDS011;4010;42.698;23.124;2023-04-15T13:02:10;3.13;;;1.37;;
7929;SDS011;4010;42.698;23.124;2023-04-15T13:04:37;1.30;;;1.20;;
7929;SDS011;4010;42.698;23.124;2023-04-15T13:07:04;2.47;;;1.73;;
7929;SDS011;4010;42.698;23.124;2023-04-15T13:09:31;1.20;;;1.03;;
7929;SDS011;4010;42.698;23.124;2023-04-15T13:11:57;2.30;;;0.90;;
7929;SDS011;4010;42.698;23.124;2023-04-15T13:14:24;0.93;;;0.80;;
7929;SDS011;4010;42.698;23.124;2023-04-15T13:16:52;1.73;;;1.10;;
7929;SDS011;4010;42.698;23.124;2023-04-15T13:19:19;1.20;;;0.70;;
7929;SDS011;4010;42.698;23.124;2023-04-15T13:21:46;3.50;;;1.00;;
7929;SDS011;4010;42.698;23.124;2023-04-15T13:24:12;1.10;;;0.80;;
7929;SDS011;4010;42.698;23.124;2023-04-15T13:26:39;1.43;;;0.93;;
7929;SDS011;4010;42.698;23.124;2023-04-15T13:29:06;1.07;;;0.90;;
7929;SDS011;4010;42.698;23.124;2023-04-15T13:31:33;0.83;;;0.70;;
7929;SDS011;4010;42.698;23.124;2023-04-15T13:34:01;1.63;;;1.00;;
7929;SDS011;4010;42.698;23.124;2023-04-15T13:36:27;1.23;;;0.70;;
7929;SDS011;4010;42.698;23.124;2023-04-15T13:38:54;0.80;;;0.80;;
7929;SDS011;4010;42.698;23.124;2023-04-15T13:41:21;1.90;;;0.80;;
7929;SDS011;4010;42.698;23.124;2023-04-15T13:43:48;2.33;;;0.50;;
7929;SDS011;4010;42.698;23.124;2023-04-15T13:46:15;0.70;;;0.70;;
7929;SDS011;4010;42.698;23.124;2023-04-15T13:48:41;2.37;;;0.87;;
7929;SDS011;4010;42.698;23.124;2023-04-15T13:51:09;0.63;;;0.57;;
7929;SDS011;4010;42.698;23.124;2023-04-15T13:53:36;2.30;;;0.63;;
7929;SDS011;4010;42.698;23.124;2023-04-15T13:56:03;1.63;;;0.80;;
7929;SDS011;4010;42.698;23.124;2023-04-15T13:58:30;0.80;;;0.63;;
7929;SDS011;4010;42.698;23.124;2023-04-15T14:00:57;1.30;;;0.87;;
7929;SDS011;4010;42.698;23.124;2023-04-15T14:03:23;1.40;;;1.00;;
7929;SDS011;4010;42.698;23.124;2023-04-15T14:05:50;2.23;;;0.70;;
7929;SDS011;4010;42.698;23.124;2023-04-15T14:08:21;1.13;;;0.63;;
7929;SDS011;4010;42.698;23.124;2023-04-15T14:10:48;4.03;;;0.87;;
7929;SDS011;4010;42.698;23.124;2023-04-15T14:13:15;0.80;;;0.67;;
7929;SDS011;4010;42.698;23.124;2023-04-15T14:15:43;1.67;;;0.57;;
7929;SDS011;4010;42.698;23.124;2023-04-15T14:18:10;0.83;;;0.60;;
7929;SDS011;4010;42.698;23.124;2023-04-15T14:20:37;1.37;;;0.50;;
7929;SDS011;4010;42.698;23.124;2023-04-15T14:23:04;0.60;;;0.60;;
7929;SDS011;4010;42.698;23.124;2023-04-15T14:25:32;0.73;;;0.63;;
7929;SDS011;4010;42.698;23.124;2023-04-15T14:27:58;0.80;;;0.60;;
7929;SDS011;4010;42.698;23.124;2023-04-15T14:30:25;0.83;;;0.50;;
7929;SDS011;4010;42.698;23.124;2023-04-15T14:32:52;0.73;;;0.60;;
7929;SDS011;4010;42.698;23.124;2023-04-15T14:35:18;1.37;;;0.53;;
7929;SDS011;4010;42.698;23.124;2023-04-15T14:37:45;0.63;;;0.50;;
7929;SDS011;4010;42.698;23.124;2023-04-15T14:40:11;0.77;;;0.73;;
7929;SDS011;4010;42.698;23.124;2023-04-15T14:42:40;1.23;;;0.60;;
7929;SDS011;4010;42.698;23.124;2023-04-15T14:45:07;2.57;;;0.90;;
7929;SDS011;4010;42.698;23.124;2023-04-15T14:47:35;1.10;;;0.77;;
7929;SDS011;4010;42.698;23.124;2023-04-15T14:50:02;0.73;;;0.70;;
7929;SDS011;4010;42.698;23.124;2023-04-15T14:52:29;1.13;;;0.70;;
7929;SDS011;4010;42.698;23.124;2023-04-15T14:54:57;0.67;;;0.63;;
7929;SDS011;4010;42.698;23.124;2023-04-15T14:57:23;0.60;;;0.60;;
7929;SDS011;4010;42.698;23.124;2023-04-15T14:59:51;0.70;;;0.70;;
7929;SDS011;4010;42.698;23.124;2023-04-15T15:02:20;0.40;;;0.40;;
7929;SDS011;4010;42.698;23.124;2023-04-15T15:04:47;0.83;;;0.50;;
7929;SDS011;4010;42.698;23.124;2023-04-15T15:07:14;0.90;;;0.57;;
7929;SDS011;4010;42.698;23.124;2023-04-15T15:09:40;0.93;;;0.80;;